Time;durP1;ratioP1;P1;durP2;ratioP2;P2;SDS_P1;SDS_P2;PMS_P1;PMS_P2;Temp;Humidity;BMP_temperature;BMP_pressure;BME280_temperature;BME280_humidity;BME280_pressure;Samples;Min_cycle;Max_cycle;Signal;HPM_P1;HPM_P2
2021/10/20 00:01:28;;;;;;;1013.38;909.05;;;;;;;;;;5055040;28;20017;-76
2021/10/20 00:03:55;;;;;;;1059.63;952.08;;;;;;;;;;5075409;28;20031;-75
2021/10/20 00:06:21;;;;;;;1042.72;936.60;;;;;;;;;;5087220;28;20050;-76
2021/10/20 00:08:50;;;;;;;1068.20;960.10;;;;;;;;;;5056406;28;20067;-76
2021/10/20 00:11:16;;;;;;;1013.10;908.70;;;;;;;;;;5075941;28;20096;-76
2021/10/20 00:13:42;;;;;;;1047.50;940.80;;;;;;;;;;5043818;28;20047;-76
2021/10/20 00:16:08;;;;;;;1016.80;912.20;;;;;;;;;;5034680;28;20459;-75
2021/10/20 00:18:35;;;;;;;1049.88;942.58;;;;;;;;;;5027855;28;20541;-76
2021/10/20 00:21:04;;;;;;;1068.88;960.58;;;;;;;;;;5034625;28;20044;-77
2021/10/20 00:23:30;;;;;;;1026.38;921.08;;;;;;;;;;5023491;28;20497;-77
2021/10/20 00:25:56;;;;;;;1046.18;939.58;;;;;;;;;;5022606;28;20033;-76
2021/10/20 00:28:22;;;;;;;1045.15;937.88;;;;;;;;;;5020709;28;20033;-77
2021/10/20 00:30:48;;;;;;;1066.75;958.35;;;;;;;;;;5039582;28;20033;-76
2021/10/20 00:33:14;;;;;;;1070.95;962.13;;;;;;;;;;5027083;28;20044;-78
2021/10/20 00:35:40;;;;;;;1032.15;925.88;;;;;;;;;;5027456;28;20029;-77
2021/10/20 00:38:06;;;;;;;1022.63;916.88;;;;;;;;;;5027867;28;20485;-77
2021/10/20 00:40:32;;;;;;;1017.33;912.10;;;;;;;;;;5027635;28;20033;-76
2021/10/20 00:42:58;;;;;;;1010.85;906.47;;;;;;;;;;5025439;28;20063;-76
2021/10/20 00:45:24;;;;;;;1019.33;914.28;;;;;;;;;;5065620;28;20472;-75
2021/10/20 00:47:50;;;;;;;1004.58;900.13;;;;;;;;;;5090682;28;20076;-76
2021/10/20 00:50:16;;;;;;;1019.63;914.22;;;;;;;;;;5083524;28;20032;-77
2021/10/20 00:52:43;;;;;;;1000.60;896.05;;;;;;;;;;5055992;28;20036;-77
2021/10/20 00:55:10;;;;;;;1025.25;919.53;;;;;;;;;;5057140;28;20086;-76
2021/10/20 00:57:38;;;;;;;997.90;893.78;;;;;;;;;;5071011;28;20035;-76
2021/10/20 01:00:05;;;;;;;993.70;889.60;;;;;;;;;;5072322;28;20144;-76
2021/10/20 01:02:31;;;;;;;980.85;877.55;;;;;;;;;;5074117;28;20028;-77
2021/10/20 01:04:57;;;;;;;1034.32;927.60;;;;;;;;;;5084729;28;20028;-77
2021/10/20 01:07:23;;;;;;;1009.20;904.45;;;;;;;;;;5072141;28;20051;-77
2021/10/20 01:09:49;;;;;;;1042.95;936.10;;;;;;;;;;5072230;28;20028;-76
2021/10/20 01:12:18;;;;;;;1028.57;921.95;;;;;;;;;;5059255;28;20283;-76
2021/10/20 01:14:45;;;;;;;1035.10;928.78;;;;;;;;;;5068544;28;20602;-76
2021/10/20 01:17:11;;;;;;;1062.97;954.50;;;;;;;;;;5049284;28;20056;-77
2021/10/20 01:19:40;;;;;;;1039.00;931.95;;;;;;;;;;5049748;28;20031;-77
2021/10/20 01:22:07;;;;;;;1054.53;946.57;;;;;;;;;;5048836;28;20036;-76
2021/10/20 01:24:33;;;;;;;1038.13;931.25;;;;;;;;;;5047703;28;20025;-76
2021/10/20 01:26:59;;;;;;;1039.75;932.75;;;;;;;;;;5048405;28;20599;-77
2021/10/20 01:29:25;;;;;;;1064.10;955.97;;;;;;;;;;5047512;28;20374;-76
2021/10/20 01:31:56;;;;;;;1059.07;950.63;;;;;;;;;;5047169;28;20477;-76
2021/10/20 01:34:23;;;;;;;1053.22;945.40;;;;;;;;;;5046150;28;20028;-76
2021/10/20 01:36:49;;;;;;;1026.97;920.78;;;;;;;;;;5029657;28;20128;-76
2021/10/20 01:39:15;;;;;;;1063.88;955.67;;;;;;;;;;5047914;28;20451;-76
2021/10/20 01:41:41;;;;;;;1066.80;958.05;;;;;;;;;;5045320;28;20024;-76
2021/10/20 01:44:08;;;;;;;1062.93;954.58;;;;;;;;;;5051771;28;20407;-76
2021/10/20 01:46:34;;;;;;;1063.53;955.30;;;;;;;;;;5054197;28;20420;-76
2021/10/20 01:49:01;;;;;;;1045.85;938.92;;;;;;;;;;5049424;28;20033;-76
2021/10/20 01:51:27;;;;;;;1071.57;963.00;;;;;;;;;;5047327;28;20036;-77
2021/10/20 01:53:53;;;;;;;1061.88;953.42;;;;;;;;;;5047881;28;20028;-76
2021/10/20 01:56:19;;;;;;;1068.63;959.88;;;;;;;;;;5047988;28;20025;-77
2021/10/20 01:58:45;;;;;;;1071.85;962.67;;;;;;;;;;5047214;28;20032;-76
2021/10/20 02:01:11;;;;;;;1049.47;942.03;;;;;;;;;;5048679;28;20045;-77
2021/10/20 02:03:38;;;;;;;1059.30;951.03;;;;;;;;;;5049647;28;20107;-77
2021/10/20 02:06:05;;;;;;;1034.10;927.63;;;;;;;;;;5047727;28;20025;-77
2021/10/20 02:08:37;;;;;;;1057.25;949.05;;;;;;;;;;5047514;28;20034;-77
2021/10/20 02:11:04;;;;;;;1041.18;933.85;;;;;;;;;;5043139;28;20021;-77
2021/10/20 02:13:30;;;;;;;1034.10;927.50;;;;;;;;;;5060702;28;20498;-76
2021/10/20 02:15:56;;;;;;;1058.38;950.17;;;;;;;;;;5070815;28;20104;-77
2021/10/20 02:18:22;;;;;;;1049.72;942.20;;;;;;;;;;5060790;28;20020;-77
2021/10/20 02:20:51;;;;;;;1076.32;966.75;;;;;;;;;;5063366;28;20052;-76
2021/10/20 02:23:16;;;;;;;1065.75;956.88;;;;;;;;;;5090135;28;20036;-75
2021/10/20 02:25:42;;;;;;;1070.97;961.70;;;;;;;;;;5070582;28;20016;-77
2021/10/20 02:28:11;;;;;;;1071.90;962.72;;;;;;;;;;5070092;28;20089;-76
2021/10/20 02:30:37;;;;;;;1073.93;964.08;;;;;;;;;;5086066;28;20032;-75
2021/10/20 02:33:04;;;;;;;1072.57;963.35;;;;;;;;;;5076807;28;20020;-77
2021/10/20 02:35:30;;;;;;;1069.60;960.83;;;;;;;;;;5086042;28;20483;-75
2021/10/20 02:37:56;;;;;;;1050.43;942.85;;;;;;;;;;5054520;28;20060;-75
2021/10/20 02:40:22;;;;;;;1067.97;959.53;;;;;;;;;;5069555;28;20064;-75
2021/10/20 02:42:51;;;;;;;1075.07;965.65;;;;;;;;;;5076285;28;20025;-74
2021/10/20 02:45:17;;;;;;;1065.70;957.20;;;;;;;;;;5084167;28;20038;-75
2021/10/20 02:47:43;;;;;;;1045.65;938.10;;;;;;;;;;5084746;28;20030;-75
2021/10/20 02:50:10;;;;;;;1050.85;942.72;;;;;;;;;;5084980;28;20473;-77
2021/10/20 02:52:36;;;;;;;1052.25;944.30;;;;;;;;;;5063546;28;20052;-75
2021/10/20 02:55:02;;;;;;;1048.82;939.10;;;;;;;;;;5068523;28;20059;-76
2021/10/20 02:57:28;;;;;;;1030.28;923.90;;;;;;;;;;5060570;28;20047;-77
2021/10/20 02:59:54;;;;;;;1077.07;967.15;;;;;;;;;;5057156;28;20032;-76
2021/10/20 03:02:20;;;;;;;1070.00;960.47;;;;;;;;;;5084964;28;20391;-75
2021/10/20 03:04:47;;;;;;;1073.95;964.13;;;;;;;;;;5087566;28;20567;-76
2021/10/20 03:07:13;;;;;;;1066.05;957.17;;;;;;;;;;5068947;28;20504;-75
2021/10/20 03:09:39;;;;;;;1019.70;913.22;;;;;;;;;;5069076;28;20028;-75
2021/10/20 03:12:07;;;;;;;1040.40;933.30;;;;;;;;;;5066342;28;20038;-76
2021/10/20 03:14:33;;;;;;;1068.22;959.15;;;;;;;;;;5085871;28;20450;-75
2021/10/20 03:16:59;;;;;;;1038.80;931.55;;;;;;;;;;5068426;28;20400;-75
2021/10/20 03:19:27;;;;;;;1035.82;929.15;;;;;;;;;;5087164;28;20119;-75
2021/10/20 03:21:53;;;;;;;1046.22;939.00;;;;;;;;;;5075271;28;20032;-76
2021/10/20 03:24:19;;;;;;;1072.47;963.10;;;;;;;;;;5086401;28;20050;-76
2021/10/20 03:26:45;;;;;;;1044.22;937.13;;;;;;;;;;5069287;28;20125;-77
2021/10/20 03:29:11;;;;;;;1043.45;936.22;;;;;;;;;;5067472;28;20494;-76
2021/10/20 03:31:38;;;;;;;1054.50;946.58;;;;;;;;;;5062210;28;20033;-76
2021/10/20 03:34:04;;;;;;;1034.10;927.53;;;;;;;;;;5063507;28;20023;-76
2021/10/20 03:36:30;;;;;;;1024.07;918.35;;;;;;;;;;5056678;28;20480;-76
2021/10/20 03:38:57;;;;;;;1035.78;928.88;;;;;;;;;;5088571;28;20100;-76
2021/10/20 03:41:24;;;;;;;1026.57;920.22;;;;;;;;;;5062592;28;20057;-76
2021/10/20 03:43:50;;;;;;;1046.43;938.97;;;;;;;;;;5056269;28;20024;-76
2021/10/20 03:46:16;;;;;;;1064.15;955.45;;;;;;;;;;5069277;28;20035;-77
2021/10/20 03:48:43;;;;;;;1044.20;936.90;;;;;;;;;;5069844;28;20511;-76
2021/10/20 03:51:09;;;;;;;1023.97;917.92;;;;;;;;;;5070066;28;20027;-75
2021/10/20 03:53:35;;;;;;;1056.30;948.00;;;;;;;;;;5059544;28;20107;-75
2021/10/20 03:56:02;;;;;;;1048.55;941.28;;;;;;;;;;5069242;28;20038;-75
2021/10/20 03:58:29;;;;;;;1034.28;927.83;;;;;;;;;;5000920;28;20045;-76
2021/10/20 04:00:57;;;;;;;1074.00;964.72;;;;;;;;;;4979979;28;20127;-78
2021/10/20 04:03:23;;;;;;;1078.45;968.83;;;;;;;;;;4964169;28;20457;-76
2021/10/20 04:05:49;;;;;;;1082.78;972.72;;;;;;;;;;4959212;28;20094;-76
2021/10/20 04:08:20;;;;;;;1071.88;962.55;;;;;;;;;;4991036;28;20490;-77
2021/10/20 04:10:47;;;;;;;1054.13;946.20;;;;;;;;;;4975050;28;20065;-76
2021/10/20 04:13:13;;;;;;;1074.20;964.78;;;;;;;;;;4995669;28;20104;-76
2021/10/20 04:15:41;;;;;;;1079.75;969.88;;;;;;;;;;5005137;28;20037;-75
2021/10/20 04:18:07;;;;;;;1067.90;959.28;;;;;;;;;;4988621;28;20038;-79
2021/10/20 04:20:36;;;;;;;1082.22;972.60;;;;;;;;;;4991407;28;20033;-76
2021/10/20 04:23:02;;;;;;;1075.22;966.33;;;;;;;;;;5001070;28;20037;-77
2021/10/20 04:25:28;;;;;;;1076.93;967.28;;;;;;;;;;4975594;28;20031;-76
2021/10/20 04:27:54;;;;;;;1083.43;973.67;;;;;;;;;;4986454;28;20121;-75
2021/10/20 04:30:23;;;;;;;1073.72;964.67;;;;;;;;;;5074324;28;20051;-76
2021/10/20 04:32:49;;;;;;;1080.32;970.30;;;;;;;;;;5061163;28;20032;-75
2021/10/20 04:35:19;;;;;;;1053.13;945.35;;;;;;;;;;5055094;28;20028;-78
2021/10/20 04:37:45;;;;;;;1061.53;952.85;;;;;;;;;;5071509;28;20019;-77
2021/10/20 04:40:13;;;;;;;1056.75;948.95;;;;;;;;;;5069582;28;20064;-76
2021/10/20 04:42:41;;;;;;;1041.35;934.40;;;;;;;;;;5070426;28;20423;-77
2021/10/20 04:45:07;;;;;;;1064.53;956.15;;;;;;;;;;5091847;28;20531;-76
2021/10/20 04:47:33;;;;;;;1042.72;935.15;;;;;;;;;;5078777;28;20046;-76
2021/10/20 04:50:00;;;;;;;1067.70;959.17;;;;;;;;;;5072504;28;20035;-75
2021/10/20 04:52:33;;;;;;;1051.55;944.10;;;;;;;;;;5087223;28;20020;-78
2021/10/20 04:55:02;;;;;;;1069.70;960.95;;;;;;;;;;5066948;28;20028;-75
2021/10/20 04:57:28;;;;;;;1081.85;971.90;;;;;;;;;;5065867;28;20472;-75
2021/10/20 05:00:08;;;;;;;1072.70;963.63;;;;;;;;;;5086856;28;20028;-77
2021/10/20 05:02:40;;;;;;;1073.60;965.15;;;;;;;;;;5070120;28;20070;-76
2021/10/20 05:05:06;;;;;;;1081.43;971.25;;;;;;;;;;5067726;28;20024;-76
2021/10/20 05:07:35;;;;;;;1076.95;967.50;;;;;;;;;;5087360;28;20028;-78
2021/10/20 05:10:01;;;;;;;1063.13;955.30;;;;;;;;;;5089445;28;20444;-75
2021/10/20 05:12:27;;;;;;;1065.13;957.30;;;;;;;;;;5060348;28;20055;-76
2021/10/20 05:14:53;;;;;;;1075.03;966.40;;;;;;;;;;5053322;28;20044;-75
2021/10/20 05:17:19;;;;;;;1022.15;917.33;;;;;;;;;;5066652;28;20034;-75
2021/10/20 05:19:45;;;;;;;1027.95;922.65;;;;;;;;;;5065332;28;20396;-75
2021/10/20 05:22:11;;;;;;;1061.22;953.80;;;;;;;;;;5076087;28;20020;-75
2021/10/20 05:24:38;;;;;;;1044.18;937.63;;;;;;;;;;5093914;28;20024;-78
2021/10/20 05:27:08;;;;;;;1024.57;919.25;;;;;;;;;;5071508;28;20116;-75
2021/10/20 05:29:34;;;;;;;1072.75;964.28;;;;;;;;;;5084595;28;20066;-75
2021/10/20 05:32:02;;;;;;;1048.78;942.15;;;;;;;;;;5074430;28;20428;-76
2021/10/20 05:34:28;;;;;;;1012.50;907.97;;;;;;;;;;5058519;28;20032;-76
2021/10/20 05:36:55;;;;;;;1089.68;980.28;;;;;;;;;;5078791;28;20075;-77
2021/10/20 05:39:21;;;;;;;1038.07;932.33;;;;;;;;;;5075287;28;20028;-76
2021/10/20 05:41:50;;;;;;;1059.60;952.70;;;;;;;;;;5091669;28;20028;-77
2021/10/20 05:44:19;;;;;;;1072.28;963.97;;;;;;;;;;5070871;28;20021;-76
2021/10/20 05:46:47;;;;;;;1028.13;922.95;;;;;;;;;;5068858;28;20032;-76
2021/10/20 05:49:13;;;;;;;1052.07;945.58;;;;;;;;;;5071872;28;20549;-76
2021/10/20 05:51:41;;;;;;;1089.88;980.65;;;;;;;;;;5070495;28;20016;-77
2021/10/20 05:54:07;;;;;;;1053.00;946.92;;;;;;;;;;5077730;28;20485;-76
2021/10/20 05:56:34;;;;;;;1085.53;976.78;;;;;;;;;;5061735;28;20109;-77
2021/10/20 05:59:03;;;;;;;1076.45;968.08;;;;;;;;;;5066377;28;20037;-78
2021/10/20 06:01:30;;;;;;;1067.30;959.63;;;;;;;;;;5081183;28;20021;-78
2021/10/20 06:03:57;;;;;;;1087.57;978.38;;;;;;;;;;5066279;28;20047;-76
2021/10/20 06:06:25;;;;;;;1090.45;981.17;;;;;;;;;;5070720;28;20024;-79
2021/10/20 06:08:51;;;;;;;1099.90;989.95;;;;;;;;;;5067361;28;20542;-77
2021/10/20 06:11:17;;;;;;;1054.82;948.38;;;;;;;;;;5068478;28;20778;-75
2021/10/20 06:13:44;;;;;;;1086.15;977.45;;;;;;;;;;5084008;28;20411;-77
2021/10/20 06:16:11;;;;;;;1069.22;961.83;;;;;;;;;;5062936;28;20351;-77
2021/10/20 06:18:38;;;;;;;1085.72;976.65;;;;;;;;;;5066859;28;20477;-78
2021/10/20 06:21:04;;;;;;;1064.38;957.08;;;;;;;;;;5066050;28;20078;-77
2021/10/20 06:23:32;;;;;;;1064.60;957.40;;;;;;;;;;5067999;28;20028;-76
2021/10/20 06:26:02;;;;;;;1047.55;941.63;;;;;;;;;;5065892;28;20024;-79
2021/10/20 06:28:28;;;;;;;1048.00;941.80;;;;;;;;;;5066003;28;20086;-77
2021/10/20 06:30:54;;;;;;;1027.57;922.63;;;;;;;;;;5063750;28;20384;-76
2021/10/20 06:33:20;;;;;;;1077.78;969.80;;;;;;;;;;5082455;28;20031;-77
2021/10/20 06:35:46;;;;;;;1056.50;949.85;;;;;;;;;;5066344;28;20028;-80
2021/10/20 06:38:49;;;;;;;1071.22;964.03;;;;;;;;;;5069351;28;20484;-76
2021/10/20 06:41:18;;;;;;;1058.15;951.53;;;;;;;;;;5066601;28;20036;-77
2021/10/20 06:43:44;;;;;;;1064.22;957.53;;;;;;;;;;5087087;28;20036;-75
2021/10/20 06:46:11;;;;;;;1084.63;976.72;;;;;;;;;;5072240;28;20117;-78
2021/10/20 06:48:39;;;;;;;1077.22;969.63;;;;;;;;;;5070294;28;20673;-77
2021/10/20 06:51:06;;;;;;;1101.97;992.10;;;;;;;;;;5088780;28;20024;-77
2021/10/20 06:53:33;;;;;;;1085.13;977.08;;;;;;;;;;5070135;28;20043;-77
2021/10/20 06:55:59;;;;;;;1041.93;936.10;;;;;;;;;;5075637;28;20436;-77
2021/10/20 06:58:25;;;;;;;1052.32;946.47;;;;;;;;;;5061357;28;20078;-75
2021/10/20 07:00:51;;;;;;;1073.07;965.22;;;;;;;;;;5067520;28;20369;-76
2021/10/20 07:03:17;;;;;;;1052.22;946.08;;;;;;;;;;5086031;28;20023;-77
2021/10/20 07:05:43;;;;;;;1041.22;935.78;;;;;;;;;;5070284;28;20494;-77
2021/10/20 07:08:10;;;;;;;1054.95;948.53;;;;;;;;;;5088233;28;20026;-77
2021/10/20 07:10:36;;;;;;;1035.88;930.47;;;;;;;;;;5069104;28;20051;-77
2021/10/20 07:13:07;;;;;;;1058.22;951.45;;;;;;;;;;5086008;28;20081;-76
2021/10/20 07:15:33;;;;;;;1084.88;976.38;;;;;;;;;;5070269;28;20039;-76
2021/10/20 07:17:59;;;;;;;1092.07;983.13;;;;;;;;;;5073440;28;20500;-75
2021/10/20 07:20:44;;;;;;;1071.78;964.28;;;;;;;;;;5075520;28;20479;-77
2021/10/20 07:23:10;;;;;;;1056.05;949.08;;;;;;;;;;5071002;28;20028;-75
2021/10/20 07:25:38;;;;;;;1071.07;963.47;;;;;;;;;;5092063;28;20452;-75
2021/10/20 07:28:04;;;;;;;1034.90;929.40;;;;;;;;;;5068674;28;20031;-75
2021/10/20 07:30:31;;;;;;;1034.22;928.97;;;;;;;;;;5085040;28;20032;-74
2021/10/20 07:33:02;;;;;;;1057.53;950.65;;;;;;;;;;5081521;28;20016;-75
2021/10/20 07:35:32;;;;;;;1044.53;938.92;;;;;;;;;;5070952;28;20039;-77
2021/10/20 07:38:00;;;;;;;1044.72;938.45;;;;;;;;;;5087061;28;20074;-75
2021/10/20 07:40:30;;;;;;;1054.50;947.85;;;;;;;;;;5073801;28;20039;-74
2021/10/20 07:42:56;;;;;;;1048.88;942.17;;;;;;;;;;5071526;28;20422;-75
2021/10/20 07:45:23;;;;;;;1040.68;934.97;;;;;;;;;;5071019;28;20457;-75
2021/10/20 07:47:50;;;;;;;1011.92;907.72;;;;;;;;;;4983924;28;20145;-76
2021/10/20 07:50:17;;;;;;;1016.97;912.53;;;;;;;;;;5000148;28;20468;-75
2021/10/20 07:53:01;;;;;;;1016.13;910.80;;;;;;;;;;4988879;28;20133;-74
2021/10/20 07:55:32;;;;;;;1004.80;900.70;;;;;;;;;;5003178;28;20069;-74
2021/10/20 07:57:58;;;;;;;1047.57;940.45;;;;;;;;;;5013207;28;20060;-74
2021/10/20 08:00:24;;;;;;;1002.88;898.47;;;;;;;;;;5013617;28;20112;-77
2021/10/20 08:02:50;;;;;;;1004.70;899.83;;;;;;;;;;5009530;28;20038;-77
2021/10/20 08:05:18;;;;;;;1027.55;922.33;;;;;;;;;;4988117;28;20029;-76
2021/10/20 08:07:44;;;;;;;1018.88;913.42;;;;;;;;;;5011524;28;20103;-76
2021/10/20 08:10:12;;;;;;;1027.05;920.83;;;;;;;;;;5003899;28;20442;-76
2021/10/20 08:12:38;;;;;;;1005.40;901.05;;;;;;;;;;4994433;28;20131;-74
2021/10/20 08:15:06;;;;;;;1041.55;934.75;;;;;;;;;;5010246;28;20058;-75
2021/10/20 08:17:42;;;;;;;1034.53;928.50;;;;;;;;;;4991835;28;20029;-74
2021/10/20 08:20:09;;;;;;;1008.95;904.20;;;;;;;;;;5012942;28;20056;-75
2021/10/20 08:22:36;;;;;;;1041.60;935.80;;;;;;;;;;5016216;28;20409;-75
2021/10/20 08:25:03;;;;;;;931.55;830.17;;;;;;;;;;5030316;28;20389;-75
2021/10/20 08:27:28;;;;;;;987.22;883.63;;;;;;;;;;5031138;28;20119;-75
2021/10/20 08:29:55;;;;;;;987.58;884.47;;;;;;;;;;5031171;28;20036;-74
2021/10/20 08:32:21;;;;;;;976.85;873.70;;;;;;;;;;5014371;28;20037;-74
2021/10/20 08:34:47;;;;;;;972.38;869.65;;;;;;;;;;5015929;28;20083;-75
2021/10/20 08:37:15;;;;;;;1021.65;916.78;;;;;;;;;;5028760;28;20088;-75
2021/10/20 08:39:41;;;;;;;996.50;892.88;;;;;;;;;;5012411;28;20083;-74
2021/10/20 08:42:07;;;;;;;987.20;884.20;;;;;;;;;;5022772;28;20508;-76
2021/10/20 08:44:36;;;;;;;966.47;864.13;;;;;;;;;;5011340;28;20026;-74
2021/10/20 08:47:03;;;;;;;981.63;878.65;;;;;;;;;;4992757;28;20038;-76
2021/10/20 08:49:29;;;;;;;986.03;882.90;;;;;;;;;;4974817;28;20035;-75
2021/10/20 08:51:55;;;;;;;950.53;848.97;;;;;;;;;;4993484;28;20034;-75
2021/10/20 08:54:21;;;;;;;980.85;877.75;;;;;;;;;;4975695;28;20120;-75
2021/10/20 08:56:48;;;;;;;969.17;866.78;;;;;;;;;;4993061;28;20041;-75
2021/10/20 08:59:20;;;;;;;956.58;854.67;;;;;;;;;;4992942;28;20454;-75
2021/10/20 09:01:46;;;;;;;947.80;846.42;;;;;;;;;;4987599;28;20039;-75
2021/10/20 09:04:20;;;;;;;987.28;885.00;;;;;;;;;;5014932;28;20471;-78
2021/10/20 09:06:47;;;;;;;1001.97;899.00;;;;;;;;;;5015469;28;20068;-77
2021/10/20 09:09:14;;;;;;;1008.20;904.50;;;;;;;;;;5016787;28;20048;-76
2021/10/20 09:11:41;;;;;;;980.15;877.95;;;;;;;;;;5025138;28;20037;-76
2021/10/20 09:14:10;;;;;;;1012.47;909.05;;;;;;;;;;5033802;28;20044;-75
2021/10/20 09:16:38;;;;;;;995.40;892.45;;;;;;;;;;5051204;28;20028;-74
2021/10/20 09:19:21;;;;;;;1013.13;909.63;;;;;;;;;;5079935;28;20425;-77
2021/10/20 09:21:48;;;;;;;1024.25;920.08;;;;;;;;;;5072086;28;20024;-76
2021/10/20 09:24:14;;;;;;;1039.75;934.95;;;;;;;;;;5072529;28;20016;-76
2021/10/20 09:27:00;;;;;;;1015.88;912.15;;;;;;;;;;5072361;28;20551;-77
2021/10/20 09:29:27;;;;;;;986.03;883.55;;;;;;;;;;5062826;28;20242;-78
2021/10/20 09:31:55;;;;;;;984.42;882.22;;;;;;;;;;5055707;28;20031;-76
2021/10/20 09:34:22;;;;;;;1025.57;921.72;;;;;;;;;;5078842;28;20356;-76
2021/10/20 09:36:52;;;;;;;1043.35;938.22;;;;;;;;;;5081042;28;20578;-79
2021/10/20 09:39:20;;;;;;;1031.32;927.10;;;;;;;;;;5067097;28;20044;-76
2021/10/20 09:41:46;;;;;;;1014.65;911.03;;;;;;;;;;5057769;28;20044;-77
2021/10/20 09:44:13;;;;;;;1021.17;917.35;;;;;;;;;;5079300;28;20024;-77
2021/10/20 09:46:43;;;;;;;974.55;872.67;;;;;;;;;;5072752;28;20023;-77
2021/10/20 09:49:17;;;;;;;990.28;887.80;;;;;;;;;;5068270;28;20419;-79
2021/10/20 09:51:43;;;;;;;1044.90;939.80;;;;;;;;;;5085370;28;20523;-75
2021/10/20 09:54:29;;;;;;;1017.88;913.55;;;;;;;;;;5072355;28;20114;-75
2021/10/20 09:56:57;;;;;;;1031.90;927.50;;;;;;;;;;5073534;28;20376;-76
2021/10/20 09:59:27;;;;;;;1024.28;920.30;;;;;;;;;;5071616;28;20424;-77
2021/10/20 10:01:53;;;;;;;1040.80;936.38;;;;;;;;;;5071346;28;20020;-77
2021/10/20 10:04:19;;;;;;;1061.72;955.83;;;;;;;;;;5073037;28;20105;-76
2021/10/20 10:06:46;;;;;;;1058.13;952.58;;;;;;;;;;5071656;28;20031;-76
2021/10/20 10:09:13;;;;;;;1076.70;970.38;;;;;;;;;;5070424;28;20416;-74
2021/10/20 10:12:03;;;;;;;1100.72;992.65;;;;;;;;;;5071515;28;20701;-76
2021/10/20 10:14:31;;;;;;;1101.97;992.70;;;;;;;;;;5068225;28;20079;-79
2021/10/20 10:23:40;;;;;;;1072.75;966.33;;;;;;;;;;5053346;28;20097;-76
2021/10/20 10:26:06;;;;;;;1055.45;950.65;;;;;;;;;;5051651;28;20029;-76
2021/10/20 10:28:38;;;;;;;1092.25;985.60;;;;;;;;;;5047945;28;20024;-78
2021/10/20 10:31:10;;;;;;;1073.82;968.13;;;;;;;;;;5050444;28;20064;-79
2021/10/20 10:33:38;;;;;;;1060.97;956.28;;;;;;;;;;5059591;28;20368;-76
2021/10/20 10:36:05;;;;;;;1060.40;955.53;;;;;;;;;;5062132;28;20024;-75
2021/10/20 10:38:46;;;;;;;1065.97;960.70;;;;;;;;;;5050031;28;20052;-75
2021/10/20 10:41:21;;;;;;;1060.72;955.95;;;;;;;;;;5042817;28;20354;-77
2021/10/20 10:44:08;;;;;;;1057.35;952.65;;;;;;;;;;5045057;28;20115;-79
2021/10/20 10:46:35;;;;;;;1053.75;949.08;;;;;;;;;;5040611;28;20054;-74
2021/10/20 10:49:05;;;;;;;1076.13;970.35;;;;;;;;;;5046489;28;20545;-78
2021/10/20 10:51:31;;;;;;;;;;;;;;;;;;5031749;28;20044;-76
2021/10/20 10:53:59;;;;;;;1039.00;934.38;;;;;;;;;;5048648;28;19912;-75
2021/10/20 10:56:28;;;;;;;1067.43;961.85;;;;;;;;;;5048870;28;20547;-74
2021/10/20 10:59:09;;;;;;;1064.38;959.10;;;;;;;;;;5041824;28;20795;-77
2021/10/20 11:01:37;;;;;;;1088.78;981.95;;;;;;;;;;5048055;28;20060;-77
2021/10/20 11:04:21;;;;;;;1089.97;983.88;;;;;;;;;;5035311;28;20041;-73
2021/10/20 11:06:48;;;;;;;1066.50;961.00;;;;;;;;;;5012747;28;20033;-77
2021/10/20 11:09:27;;;;;;;1067.97;962.95;;;;;;;;;;5029786;28;20026;-75
2021/10/20 11:11:54;;;;;;;1070.72;965.20;;;;;;;;;;5008220;28;20883;-78
2021/10/20 11:14:22;;;;;;;1092.45;985.67;;;;;;;;;;4978302;28;20038;-78
2021/10/20 11:16:51;;;;;;;1079.20;973.42;;;;;;;;;;4978543;28;20029;-76
2021/10/20 11:19:21;;;;;;;1080.80;975.15;;;;;;;;;;4970256;28;20030;-77
2021/10/20 11:21:47;;;;;;;1091.18;984.22;;;;;;;;;;4968464;28;20031;-79
2021/10/20 11:24:16;;;;;;;1088.45;982.20;;;;;;;;;;4973191;28;20465;-77
2021/10/20 11:26:46;;;;;;;1105.20;995.80;;;;;;;;;;4969513;28;20023;-81
2021/10/20 11:29:13;;;;;;;1100.45;993.05;;;;;;;;;;4980699;28;20778;-76
2021/10/20 11:31:49;;;;;;;1095.57;989.20;;;;;;;;;;4973248;28;20031;-75
2021/10/20 11:34:27;;;;;;;1065.30;960.80;;;;;;;;;;4994456;28;20702;-76
2021/10/20 11:36:54;;;;;;;1071.93;966.90;;;;;;;;;;4993216;28;20029;-77
2021/10/20 11:39:21;;;;;;;1068.57;963.60;;;;;;;;;;4992649;28;20697;-76
2021/10/20 11:41:52;;;;;;;1064.82;960.25;;;;;;;;;;4988608;28;20023;-77
2021/10/20 11:44:39;;;;;;;1078.65;973.72;;;;;;;;;;4977654;28;20715;-76
2021/10/20 11:47:06;;;;;;;1052.55;948.58;;;;;;;;;;5042962;28;20075;-77
2021/10/20 11:49:35;;;;;;;970.85;870.03;;;;;;;;;;5052523;28;20021;-77
2021/10/20 11:52:03;;;;;;;1008.72;906.75;;;;;;;;;;5045610;28;20029;-76
2021/10/20 11:54:32;;;;;;;1027.93;925.00;;;;;;;;;;5046204;28;20018;-81
2021/10/20 11:56:59;;;;;;;1053.93;950.22;;;;;;;;;;5047446;28;20564;-77
2021/10/20 11:59:30;;;;;;;1059.88;955.78;;;;;;;;;;5047123;28;20025;-79
2021/10/20 12:01:57;;;;;;;1061.95;957.53;;;;;;;;;;5047331;28;20021;-76
2021/10/20 12:04:24;;;;;;;1099.60;992.85;;;;;;;;;;5041233;28;20025;-76
2021/10/20 12:06:52;;;;;;;1078.07;973.00;;;;;;;;;;5045075;28;20479;-77
2021/10/20 12:09:18;;;;;;;1095.60;989.42;;;;;;;;;;5052216;28;20702;-78
2021/10/20 12:11:46;;;;;;;1059.78;955.78;;;;;;;;;;5051668;28;20017;-80
2021/10/20 12:14:13;;;;;;;1122.53;999.90;;;;;;;;;;5043650;28;20057;-80
2021/10/20 12:16:42;;;;;;;1116.68;999.90;;;;;;;;;;5047219;28;20036;-77
2021/10/20 12:19:12;;;;;;;1107.13;996.30;;;;;;;;;;5040308;28;20021;-77
2021/10/20 12:21:42;;;;;;;1141.07;999.90;;;;;;;;;;5051517;28;20420;-80
2021/10/20 12:24:09;;;;;;;1094.10;988.25;;;;;;;;;;5045957;28;20025;-74
2021/10/20 12:26:36;;;;;;;1101.53;993.63;;;;;;;;;;5037365;28;20031;-80
2021/10/20 12:29:07;;;;;;;1129.28;999.90;;;;;;;;;;5044997;28;20495;-78
2021/10/20 12:31:33;;;;;;;1153.90;999.90;;;;;;;;;;5050430;28;20025;-79
2021/10/20 12:33:59;;;;;;;1108.55;997.08;;;;;;;;;;5050394;28;20117;-77
2021/10/20 12:36:26;;;;;;;1138.82;999.90;;;;;;;;;;5040122;28;20444;-76
2021/10/20 12:38:53;;;;;;;1140.07;999.90;;;;;;;;;;5029799;28;20041;-76
2021/10/20 12:41:40;;;;;;;1142.43;999.90;;;;;;;;;;5042741;28;20952;-79
2021/10/20 12:44:08;;;;;;;1138.50;999.90;;;;;;;;;;5037674;28;20120;-75
2021/10/20 12:46:35;;;;;;;1138.55;999.90;;;;;;;;;;5053382;28;20100;-75
2021/10/20 12:49:04;;;;;;;1136.93;999.90;;;;;;;;;;5053385;28;20036;-76
2021/10/20 12:51:31;;;;;;;1132.05;999.90;;;;;;;;;;5054134;28;20036;-76
2021/10/20 12:53:59;;;;;;;1147.93;999.90;;;;;;;;;;5054717;28;20123;-78
2021/10/20 12:56:26;;;;;;;1111.63;998.42;;;;;;;;;;5050903;28;20060;-76
2021/10/20 12:59:13;;;;;;;1135.68;999.90;;;;;;;;;;5054426;28;20032;-76
2021/10/20 13:01:39;;;;;;;1104.57;995.42;;;;;;;;;;5048579;28;20083;-75
2021/10/20 13:04:07;;;;;;;1132.60;999.90;;;;;;;;;;5046247;28;20040;-76
2021/10/20 13:06:33;;;;;;;1141.57;999.90;;;;;;;;;;5054623;28;20052;-76
2021/10/20 13:08:59;;;;;;;1148.35;999.90;;;;;;;;;;5053733;28;20021;-75
2021/10/20 13:11:25;;;;;;;1137.05;999.90;;;;;;;;;;5053263;28;20136;-75
2021/10/20 13:13:55;;;;;;;1105.38;995.70;;;;;;;;;;5059526;28;20135;-76
2021/10/20 13:16:21;;;;;;;;;;;;;;;;;;5070246;28;20063;-78
2021/10/20 13:18:47;;;;;;;1083.95;977.35;;;;;;;;;;5064244;28;20559;-77
2021/10/20 13:21:15;;;;;;;1089.20;983.20;;;;;;;;;;5073727;28;20028;-76
2021/10/20 13:23:42;;;;;;;1101.22;993.50;;;;;;;;;;5069701;28;20044;-77
2021/10/20 13:26:08;;;;;;;1129.55;999.90;;;;;;;;;;5068878;28;20054;-78
2021/10/20 13:28:35;;;;;;;1155.13;999.90;;;;;;;;;;5072914;28;20533;-77
2021/10/20 13:31:01;;;;;;;1124.00;999.90;;;;;;;;;;5072962;28;20029;-76
2021/10/20 13:33:27;;;;;;;1124.38;999.90;;;;;;;;;;5074012;28;20039;-75
2021/10/20 13:35:54;;;;;;;1137.18;999.90;;;;;;;;;;5073129;28;20071;-79
2021/10/20 13:38:22;;;;;;;1129.70;999.90;;;;;;;;;;5072958;28;20025;-77
2021/10/20 13:40:50;;;;;;;1150.00;999.90;;;;;;;;;;5074328;28;20052;-77
2021/10/20 13:43:16;;;;;;;1149.05;999.90;;;;;;;;;;5047977;28;20144;-78
2021/10/20 13:45:42;;;;;;;1138.30;999.90;;;;;;;;;;5050992;28;20088;-77
2021/10/20 13:48:08;;;;;;;1155.57;999.90;;;;;;;;;;5046812;28;20037;-76
2021/10/20 13:50:35;;;;;;;1158.38;999.90;;;;;;;;;;5051860;28;20099;-75
2021/10/20 13:53:01;;;;;;;1162.68;999.90;;;;;;;;;;5050792;28;20036;-77